Flight Track Log - Related Links

Times and Time Zones

All times are in EDT time to prevent confusion due to time zone crossing. See the N121SP flight status page for this flight to view local times or setup timezone preferences in your user account.

Time Position Orientation Groundspeed Altitude Reporting Facility
EDT Latitude Longitude Course Direction KTS MPH feet Rate Location/Type
Sat 03:05:40 PM 23.7022 -75.5200 289° West 178 205 4,100  Level Miami Center
Sat 03:06:40 PM 23.7150 -75.5606 289° West 168 193 4,900 700 Climbing Miami Center
Sat 03:07:40 PM 23.7258 -75.5992 287° West 146 168 5,500 650 Climbing Miami Center
Sat 03:08:40 PM 23.7386 -75.6400 289° West 146 168 6,200 650 Climbing Miami Center
Sat 03:09:40 PM 23.7536 -75.6806 292° West 146 168 6,800 600 Climbing Miami Center
Sat 03:10:40 PM 23.7664 -75.7236 288° West 146 168 7,400 550 Climbing Miami Center
Sat 03:11:00 PM 23.6809 -75.5668 289° West  Level FlightAware Approximate
Sat 03:11:40 PM 23.7794 -75.7644 289° West 146 168 7,900  Level Miami Center
Sat 03:12:40 PM 23.7900 -75.8031 287° West 146 168 8,500 550 Climbing Miami Center
Sat 03:13:40 PM 23.8028 -75.8414 290° West 146 168 9,000 500 Climbing Miami Center
Sat 03:14:40 PM 23.8158 -75.8800 290° West 146 168 9,500 500 Climbing Miami Center
Sat 03:15:40 PM 23.8286 -75.9183 290° West 146 168 10,000 450 Climbing Miami Center
Sat 03:16:40 PM 23.8414 -75.9592 289° West 146 168 10,400 450 Climbing Miami Center
Sat 03:17:40 PM 23.8519 -75.9956 288° West 146 168 10,900 450 Climbing Miami Center
Sat 03:18:40 PM 23.8647 -76.0342 290° West 146 168 11,300 450 Climbing Miami Center
Sat 03:19:40 PM 23.8753 -76.0681 289° West 141 162 11,800 400 Climbing Miami Center
Sat 03:20:40 PM 23.8858 -76.1019 289° West 128 147 12,100 200 Climbing Miami Center
Sat 03:21:40 PM 23.9008 -76.1428 292° West 133 153 12,200  Climbing Miami Center
Sat 03:22:40 PM 23.9156 -76.1906 289° West 151 174 12,100  Descending Miami Center
Sat 03:23:40 PM 23.9306 -76.2428 287° West 164 189 12,200  Climbing Miami Center
Sat 03:24:40 PM 23.9453 -76.2906 289° West 169 194 12,100 -50 Descending Miami Center
Sat 03:25:40 PM 23.9622 -76.3428 290° West 174 200 12,100 50 Level Miami Center
Sat 03:26:40 PM 23.9769 -76.3928 288° West 174 200 12,200 50 Climbing Miami Center
Sat 03:27:40 PM 23.9961 -76.4425 293° West 174 200 12,200  Level Miami Center
Sat 03:28:40 PM 24.0086 -76.4903 286° West 169 194 12,200  Level Miami Center
Sat 03:29:40 PM 24.0233 -76.5381 289° West 163 188 12,200  Level Miami Center
Sat 03:30:40 PM 24.0403 -76.5836 292° West 163 188 12,200  Level Miami Center
Sat 03:31:40 PM 24.0528 -76.6314 286° West 163 188 12,200  Level Miami Center
Sat 03:32:40 PM 24.0675 -76.6792 289° West 163 188 12,200  Level Miami Center
Sat 03:33:40 PM 24.0822 -76.7269 289° West 163 188 12,200  Level Miami Center
Sat 03:34:40 PM 24.0947 -76.7725 287° West 163 188 12,200  Level Miami Center
Sat 03:35:40 PM 24.1117 -76.8178 292° West 163 188 12,200  Level Miami Center
Sat 03:36:40 PM 24.1261 -76.8633 289° West 163 188 12,200 -50 Level Miami Center
Sat 03:37:40 PM 24.1408 -76.9111 289° West 163 188 12,100  Descending Miami Center
Sat 03:38:40 PM 24.1553 -76.9592 288° West 163 188 12,200 50 Climbing Miami Center
Sat 03:39:40 PM 24.1722 -77.0000 294° West 163 188 12,200 -50 Level Miami Center
Sat 03:40:40 PM 24.1867 -77.0481 288° West 163 188 12,100  Descending Miami Center
Sat 03:41:40 PM 24.2011 -77.0958 288° West 163 188 12,200 50 Climbing Miami Center
Sat 03:42:40 PM 24.2158 -77.1436 289° West 169 194 12,200 -50 Level Miami Center
Sat 03:43:40 PM 24.2303 -77.1939 287° West 164 189 12,100  Descending Miami Center
Sat 03:44:40 PM 24.2447 -77.2394 289° West 164 189 12,200 50 Climbing Miami Center
Sat 03:45:40 PM 24.2594 -77.2875 289° West 164 189 12,200 -50 Level Miami Center
Sat 03:46:40 PM 24.2739 -77.3400 287° West 169 194 12,100 -50 Descending Miami Center
Sat 03:47:40 PM 24.2903 -77.3878 291° West 169 194 12,100  Level Miami Center
Sat 03:48:40 PM 24.3047 -77.4381 288° West 169 194 12,100  Level Miami Center
Sat 03:49:40 PM 24.3192 -77.4861 288° West 169 194 12,100  Level Miami Center
Sat 03:50:40 PM 24.3358 -77.5317 292° West 164 189 12,100  Level Miami Center
Sat 03:51:40 PM 24.3503 -77.5797 288° West 164 189 12,100  Level Miami Center
Sat 03:52:40 PM 24.3644 -77.6300 287° West 164 189 12,100  Level Miami Center
Sat 03:53:40 PM 24.3789 -77.6781 288° West 164 189 12,100  Level Miami Center
Sat 03:54:40 PM 24.3933 -77.7258 288° West 164 189 12,100  Level Miami Center
Sat 03:55:40 PM 24.4097 -77.7739 291° West 164 189 12,100  Level Miami Center
Sat 03:56:40 PM 24.4242 -77.8242 288° West 169 194 12,100  Level Miami Center
Sat 03:57:40 PM 24.4383 -77.8722 288° West 163 188 12,100 50 Level Miami Center
Sat 03:58:40 PM 24.4528 -77.9203 288° West 163 188 12,200  Climbing Miami Center
Sat 03:59:40 PM 24.4669 -77.9661 289° West 163 188 12,100 -50 Descending Miami Center
Sat 04:00:40 PM 24.4811 -78.0119 289° West 163 188 12,100  Level Miami Center
Sat 04:01:40 PM 24.4956 -78.0622 288° West 169 194 12,100 50 Level Miami Center
Sat 04:02:40 PM 24.5117 -78.1150 289° West 169 194 12,200  Climbing Miami Center
Sat 04:03:40 PM 24.5261 -78.1608 289° West 163 188 12,100 -50 Descending Miami Center
Sat 04:04:40 PM 24.5403 -78.2089 288° West 163 188 12,100 50 Level Miami Center
Sat 04:05:40 PM 24.5544 -78.2572 288° West 163 188 12,200 50 Climbing Miami Center
Sat 04:06:40 PM 24.5706 -78.3122 288° West 168 193 12,200 -50 Level Miami Center
Sat 04:07:40 PM 24.5867 -78.3650 289° West 168 193 12,100  Descending Miami Center
Sat 04:08:40 PM 24.6031 -78.4131 291° West 173 199 12,200 50 Climbing Miami Center
Sat 04:09:40 PM 24.6233 -78.4636 294° West 173 199 12,200 -50 Level Miami Center
Sat 04:10:40 PM 24.6417 -78.5119 293° West 167 192 12,100 -50 Descending Miami Center
Sat 04:11:40 PM 24.6661 -78.5603 299° West 172 198 12,100 50 Level Miami Center
Sat 04:12:40 PM 24.6761 -78.6039 284° West 167 192 12,200 50 Climbing Miami Center
Sat 04:13:40 PM 24.6964 -78.6497 296° West 167 192 12,200  Level Miami Center
Sat 04:14:40 PM 24.7147 -78.6958 294° West 167 192 12,200  Level Miami Center
Sat 04:15:40 PM 24.7308 -78.7442 290° West 172 198 12,200  Level Miami Center
Sat 04:16:40 PM 24.7469 -78.7900 291° West 172 198 12,200  Level Miami Center
Sat 04:17:40 PM 24.7567 -78.8361 283° West 182 209 12,200 -50 Level Miami Center
Sat 04:18:40 PM 24.7811 -78.8867 298° West 177 204 12,100  Descending Miami Center
Sat 04:19:40 PM 24.7972 -78.9306 292° West 170 196 12,200 50 Climbing Miami Center
Sat 04:20:40 PM 24.8194 -78.9814 296° West 170 196 12,200 -50 Level Miami Center
Sat 04:21:40 PM 24.8397 -79.0250 297° West 170 196 12,100  Descending Miami Center
Sat 04:22:40 PM 24.8578 -79.0758 291° West 170 196 12,200 50 Climbing Miami Center
Sat 04:23:40 PM 24.8761 -79.1197 295° West 170 196 12,200 -50 Level Miami Center
Sat 04:24:40 PM 24.8878 -79.1703 284° West 170 196 12,100 -50 Descending Miami Center
Sat 04:25:40 PM 24.8994 -79.2208 284° West 170 196 12,100 50 Level Miami Center
Sat 04:26:40 PM 24.9114 -79.2669 286° West 164 189 12,200 50 Climbing Miami Center
Sat 04:27:40 PM 24.9250 -79.3175 287° West 164 189 12,200 -50 Level Miami Center
Sat 04:28:40 PM 24.9389 -79.3636 288° West 164 189 12,100  Descending Miami Center
Sat 04:29:40 PM 24.9528 -79.4144 287° West 164 189 12,200 50 Climbing Miami Center
Sat 04:30:40 PM 24.9644 -79.4628 285° West 164 189 12,200 -50 Level Miami Center
Sat 04:31:40 PM 24.9761 -79.5111 285° West 164 189 12,100 -50 Descending Miami Center
Sat 04:32:40 PM 24.9897 -79.5597 287° West 164 189 12,100 50 Level Miami Center
Sat 04:33:40 PM 25.0036 -79.6125 286° West 164 189 12,200 50 Climbing Miami Center
Sat 04:34:40 PM 25.0172 -79.6633 286° West 164 189 12,200  Level Miami Center
Sat 04:35:40 PM 25.0308 -79.7142 286° West 164 189 12,200  Level Miami Center
Sat 04:36:40 PM 25.0444 -79.7625 287° West 169 194 12,200  Level Miami Center
Sat 04:37:40 PM 25.0581 -79.8133 286° West 169 194 12,200 -50 Level Miami Center
Sat 04:38:40 PM 25.0697 -79.8642 284° West 169 194 12,100 -50 Descending Miami Center
Sat 04:39:40 PM 25.0833 -79.9150 286° West 169 194 12,100 50 Level Miami Center
Sat 04:40:40 PM 25.0969 -79.9633 287° West 169 194 12,200 50 Climbing Miami Center
Sat 04:41:40 PM 25.1106 -80.0119 287° West 169 194 12,200 -50 Level Miami Center
Sat 04:42:40 PM 25.1219 -80.0650 283° West 169 194 12,100 -50 Descending Miami Center
Sat 04:43:40 PM 25.1375 -80.1183 288° West 169 194 12,100 50 Level Miami Center
Sat 04:44:40 PM 25.1508 -80.1692 286° West 169 194 12,200  Climbing Miami Center
Sat 04:45:40 PM 25.1622 -80.2222 283° West 169 194 12,100 -50 Descending Miami Center
Sat 04:46:40 PM 25.1739 -80.2617 288° West 169 194 12,100 50 Level Miami Center
Sat 04:47:40 PM 25.1872 -80.3169 285° West 169 194 12,200  Climbing Miami Center
Sat 04:48:40 PM 25.2006 -80.3678 286° West 169 194 12,100 -50 Descending Miami Center
Sat 04:49:40 PM 25.2139 -80.4189 286° West 169 194 12,100  Level Miami Center
Sat 04:50:40 PM 25.2272 -80.4719 286° West 169 194 12,100  Level Miami Center
Sat 04:51:40 PM 25.2428 -80.5231 289° West 169 194 12,100  Level Miami Center
Sat 04:52:40 PM 25.2542 -80.5739 284° West 169 194 12,100  Level Miami Center
Sat 04:53:40 PM 25.2675 -80.6225 287° West 169 194 12,100  Level Miami Center
Sat 04:54:40 PM 25.2808 -80.6733 286° West 169 194 12,100  Level Miami Center
Sat 04:55:40 PM 25.2942 -80.7222 287° West 164 189 12,100 -200 Level Miami Center
Sat 04:56:40 PM 25.3075 -80.7731 286° West 164 189 11,700 -450 Descending Miami Center
Sat 04:57:40 PM 25.3206 -80.8286 285° West 175 201 11,200 -600 Descending Miami Center
Sat 04:58:40 PM 25.3375 -80.8911 287° West 192 221 10,500 -650 Descending Miami Center
Sat 04:59:40 PM 25.3528 -80.9492 286° West 198 228 9,900 -600 Descending Miami Center
Sat 05:00:40 PM 25.3700 -81.0072 288° West 203 234 9,300 -400 Descending Miami Center
Sat 05:01:40 PM 25.4108 -81.0408 323° Northwest 187 215 9,100 -100 Descending Miami Center
Sat 05:02:40 PM 25.4453 -81.0742 319° Northwest 175 201 9,100 -100 Level Miami Center
Sat 05:03:40 PM 25.4819 -81.1100 319° Northwest 175 201 8,900 -400 Descending Miami Center
Sat 05:04:40 PM 25.5183 -81.1481 317° Northwest 175 201 8,300 -550 Descending Miami Center
Sat 05:05:40 PM 25.5589 -81.1864 320° Northwest 181 208 7,800 -400 Descending Miami Center
Sat 05:06:40 PM 25.5994 -81.2269 318° Northwest 188 216 7,500 -300 Descending Miami Center
Sat 05:07:40 PM 25.6381 -81.2653 318° Northwest 188 216 7,200 -300 Descending Miami Center
Sat 05:08:40 PM 25.6786 -81.3036 320° Northwest 188 216 6,900 -300 Descending Miami Center
Sat 05:09:40 PM 25.7214 -81.3444 319° Northwest 188 216 6,600 -300 Descending Miami Center
Sat 05:10:40 PM 25.7600 -81.3803 320° Northwest 183 211 6,300 -300 Descending Miami Center
Sat 05:11:40 PM 25.7983 -81.4189 318° Northwest 183 211 6,000 -300 Descending Miami Center
Sat 05:12:40 PM 25.8369 -81.4572 318° Northwest 183 211 5,700 -400 Descending Miami Center
Sat 05:13:40 PM 25.8772 -81.4981 318° Northwest 188 216 5,200 -600 Descending Miami Center
Sat 05:14:40 PM 25.9178 -81.5386 318° Northwest 188 216 4,500 -600 Descending Miami Center
Sat 05:15:40 PM 25.9583 -81.5794 318° Northwest 188 216 4,000 -600 Descending Miami Center
Sat 05:16:40 PM 25.9967 -81.6181 318° Northwest 188 216 3,300 -600 Descending Miami Center
Sat 05:17:40 PM 26.0350 -81.6589 316° Northwest 188 216 2,800 -650 Descending Miami Center
Sat 05:18:40 PM 26.0756 -81.6928 323° Northwest 188 216 2,000 -800 Descending Miami Center
Sat 05:20:00 PM 26.1228 -81.7395 318° Northwest  Level FlightAware Approximate
Sat 05:27:00 PM 26.1500 -81.7667 318° Northwest  Level FlightAware Approximate
Sat 05:28:00 PM 26.1524 -81.7756 318° Northwest  Level Estimated
Sat 05:29:00 PM 26.1524 -81.7756 318° Northwest  Level Estimated
Sat 05:30:00 PM 26.1524 -81.7756 318° Northwest  Level Estimated
Sat 05:31:00 PM 26.1524 -81.7756 318° Northwest  Level Estimated

Login

Don't have an account? Register now (free) for customized features, flight alerts, and more!